Terminal Aerodrome Forecast
Issued by NWS

Home | Current Version | Previous Version | Text Only | Print | Product List | Glossary On
Versions: 1 2 3 4 5 6 7 8 9 10 11 12 13 14 15 16 17 18 19 20
730
FTUS44 KLIX 011720
TAFGPT
TAF
KGPT 011720Z 0118/0218 21010KT P6SM SCT015 BKN020 OVC035
     FM011900 20010KT P6SM SCT025 OVC035
     FM012200 21009KT P6SM VCTS SCT030CB BKN050
     FM020100 25009KT P6SM VCTS BKN040CB
     FM020500 36015G25KT P6SM OVC045
     FM021200 02014G24KT P6SM SCT110=

USA.gov is the U.S. government's official web portal to all federal, state and local government web resources and services.